Portada
METAR-TAF:

METAR-TAF

Aeropuertos :

Nimes, Francia

latitud: 43-45N, longitud: 004-25E, altitud: 94 m

Observación

El informe se hizo hace 36 minutos, a las 13:00 UTC
Viento 14 kt del norte, variando entre noroeste y norte-noreste
Temperatura 26°C
Humedad 37%
Presión 1007 hPa
Visibilidad 10 km o más
sin nubes por debajo de 1500 m y sin presencia de cumulonimbus.

METAR: LFTW 271300Z AUTO 36014KT 320V030 CAVOK 26/10 Q1007 NOSIG

Hora: 15:36 (13:36 UTC)

Pronóstico

El informe se hizo hace 5 horas y 36 minutos, a las 08:00 UTC
Pronóstico válido del 27 a las 09 UTC al 28 a las 09 UTC
Viento 14 kt del norte
Visibilidad 10 km o más
sin nubes por debajo de 1500 m y sin presencia de cumulonimbus.
Temporalmente
del 27 a las 09 UTC al 27 a las 12 UTC
Viento 15 kt del norte con ráfagas de 25 kt

TAF: LFTW 270800Z 2709/2809 36014KT CAVOK TEMPO 2709/2712 36015G25KT

Observaciones y pronósticos meteorológicos de más de 4000 aeropuertos (mensajes METAR y TAF).

Los puntos amarillos y rojos representan las estaciones disponibles.

Ponga el ratón en el punto deseado para ver el nombre de la estación.

Haga clic para ver las observaciones y los pronósticos meteorológicos.

Para cambiar el mapa : haga clic en los botones verdes con una cruz de color negro para hacer un zoom, en el botón verde con un guión para alejar o en las flechas verdes para mapas adyacentes.


METAR-TAF: